createdAt,value
2018-06-15T00:00:43.732Z,54.23
2018-06-15T00:01:43.987Z,56.15
2018-06-15T00:02:44.214Z,58.63
2018-06-15T00:03:44.467Z,59.78
2018-06-15T00:04:44.717Z,61.79
2018-06-15T00:05:44.941Z,60.83
2018-06-15T00:06:45.207Z,60.55
2018-06-15T00:07:45.413Z,60.16
2018-06-15T00:08:45.656Z,60.16
2018-06-15T00:09:45.901Z,60.83
2018-06-15T00:10:46.129Z,61.02
2018-06-15T00:11:46.359Z,59.88
2018-06-15T00:12:46.606Z,61.22
2018-06-15T00:13:46.837Z,61.79
2018-06-15T00:14:47.076Z,61.60
2018-06-15T00:15:47.301Z,62.37
2018-06-15T00:16:47.529Z,63.70
2018-06-15T00:17:47.780Z,64.47
2018-06-15T00:18:47.999Z,59.40
2018-06-15T00:19:48.248Z,61.98
2018-06-15T00:20:48.491Z,54.33
2018-06-15T00:21:48.738Z,54.90
2018-06-15T00:22:48.982Z,50.89
2018-06-15T00:23:49.199Z,47.25
2018-06-15T00:24:49.469Z,46.01
2018-06-15T00:25:49.678Z,40.46
2018-06-15T00:26:49.930Z,38.07
2018-06-15T00:27:50.171Z,29.44
2018-06-15T00:28:50.401Z,18.45
2018-06-15T00:29:50.663Z,3.25
2018-06-15T00:30:50.909Z,0.00
2018-06-15T00:31:51.144Z,0.00
2018-06-15T00:32:51.374Z,0.00
2018-06-15T00:33:51.619Z,0.00
2018-06-15T00:34:51.882Z,0.00
2018-06-15T00:35:52.084Z,0.00
2018-06-15T00:36:52.350Z,0.00
2018-06-15T00:37:52.571Z,0.00
2018-06-15T00:38:52.804Z,0.00
2018-06-15T00:39:53.039Z,4.01
2018-06-15T00:40:53.266Z,6.79
2018-06-15T00:41:53.512Z,8.41
2018-06-15T00:42:53.772Z,12.52
2018-06-15T00:43:54.012Z,15.67
2018-06-15T00:44:54.218Z,17.88
2018-06-15T00:45:54.476Z,17.11
2018-06-15T00:46:54.715Z,15.96
2018-06-15T00:47:54.959Z,13.67
2018-06-15T00:48:55.225Z,10.89
2018-06-15T00:49:55.407Z,9.56
2018-06-15T00:50:55.666Z,15.96
2018-06-15T00:51:55.897Z,21.12
2018-06-15T00:52:56.129Z,21.32
2018-06-15T00:53:56.377Z,21.80
2018-06-15T00:54:56.617Z,22.27
2018-06-15T00:55:56.836Z,20.46
2018-06-15T00:56:57.082Z,17.59
2018-06-15T00:57:57.318Z,16.35
2018-06-15T00:58:57.548Z,16.63
2018-06-15T00:59:57.797Z,13.76
2018-06-15T01:00:58.029Z,10.52
2018-06-15T01:01:58.279Z,11.28
2018-06-15T01:02:58.518Z,8.31
2018-06-15T01:03:58.738Z,2.67
2018-06-15T01:04:58.974Z,0.00
2018-06-15T01:05:59.235Z,2.00
2018-06-15T01:06:59.435Z,2.58
2018-06-15T01:07:59.675Z,9.37
2018-06-15T01:08:59.909Z,7.65
2018-06-15T01:10:00.173Z,4.87
2018-06-15T01:11:00.410Z,4.11
2018-06-15T01:12:00.646Z,1.62
2018-06-15T01:13:00.902Z,0.00
2018-06-15T01:14:01.120Z,0.00
2018-06-15T01:15:01.399Z,0.00
2018-06-15T01:16:01.612Z,0.67
2018-06-15T01:17:01.859Z,2.48
2018-06-15T01:18:02.130Z,6.12
2018-06-15T01:19:02.351Z,7.07
2018-06-15T01:20:02.587Z,6.59
2018-06-15T01:21:02.820Z,7.74
2018-06-15T01:22:03.060Z,7.64
2018-06-15T01:23:03.302Z,2.58
2018-06-15T01:24:03.533Z,0.00
2018-06-15T01:25:03.775Z,1.05
2018-06-15T01:26:04.021Z,4.68
2018-06-15T01:27:04.260Z,4.68
2018-06-15T01:28:04.478Z,1.91
2018-06-15T01:29:04.739Z,0.00
2018-06-15T01:30:04.968Z,0.00
2018-06-15T01:31:05.205Z,0.00
2018-06-15T01:32:05.448Z,0.00
2018-06-15T01:33:05.697Z,0.00
2018-06-15T01:34:05.927Z,0.00
2018-06-15T01:35:06.180Z,0.00
2018-06-15T01:36:06.410Z,0.00
2018-06-15T01:37:06.638Z,0.00
2018-06-15T01:38:06.868Z,0.00
2018-06-15T01:39:07.123Z,0.00
2018-06-15T01:40:07.327Z,0.00
2018-06-15T01:41:07.592Z,0.00
2018-06-15T01:42:07.816Z,0.00
2018-06-15T01:43:08.052Z,0.00
2018-06-15T01:44:08.291Z,0.00
2018-06-15T01:45:08.520Z,0.00
2018-06-15T01:46:08.762Z,0.00
2018-06-15T01:47:08.997Z,0.00
2018-06-15T01:48:09.250Z,0.00
2018-06-15T01:49:09.474Z,0.00
2018-06-15T01:50:09.719Z,0.00
2018-06-15T01:51:09.961Z,0.00
2018-06-15T01:52:10.208Z,0.00
2018-06-15T01:53:10.410Z,0.00
2018-06-15T01:54:10.674Z,0.00
2018-06-15T01:55:10.911Z,0.00
2018-06-15T01:56:11.165Z,0.00
2018-06-15T01:57:11.384Z,0.00
2018-06-15T01:58:11.654Z,0.00
2018-06-15T01:59:11.870Z,0.00
2018-06-15T02:00:12.103Z,0.00
2018-06-15T02:01:12.395Z,0.00
2018-06-15T02:02:12.569Z,0.00
2018-06-15T02:03:12.837Z,0.00
2018-06-15T02:04:13.067Z,0.00
2018-06-15T02:05:13.340Z,0.00
2018-06-15T02:06:13.572Z,0.00
2018-06-15T02:07:13.825Z,0.00
2018-06-15T02:08:14.063Z,0.00
2018-06-15T02:09:14.297Z,0.00
2018-06-15T02:10:14.527Z,0.00
2018-06-15T02:11:14.773Z,0.00
2018-06-15T02:12:14.991Z,0.00
2018-06-15T02:13:15.238Z,0.00
2018-06-15T02:14:15.475Z,0.00
2018-06-15T02:15:15.755Z,0.00
2018-06-15T02:16:15.979Z,0.00
2018-06-15T02:17:16.238Z,0.00
2018-06-15T02:18:16.475Z,0.00
2018-06-15T02:19:16.717Z,0.00
2018-06-15T02:20:16.965Z,0.00
2018-06-15T02:21:17.210Z,0.00
2018-06-15T02:22:17.437Z,0.00
2018-06-15T02:23:17.668Z,0.00
2018-06-15T02:24:17.911Z,0.00
2018-06-15T02:25:18.156Z,0.00
2018-06-15T02:26:18.391Z,0.00
2018-06-15T02:27:18.646Z,0.00
2018-06-15T02:28:18.909Z,0.00
2018-06-15T02:29:19.137Z,0.00
2018-06-15T02:30:19.351Z,0.00
2018-06-15T02:31:19.597Z,0.00
2018-06-15T02:32:19.830Z,0.00
2018-06-15T02:33:20.098Z,0.00
2018-06-15T02:34:20.307Z,0.00
2018-06-15T02:35:20.543Z,0.00
2018-06-15T02:36:20.778Z,0.00
2018-06-15T02:37:21.044Z,0.00
2018-06-15T02:38:21.269Z,0.00
2018-06-15T02:39:21.497Z,0.00
2018-06-15T02:40:21.727Z,0.00
2018-06-15T02:41:21.989Z,0.00
2018-06-15T02:42:22.229Z,0.00
2018-06-15T02:43:22.450Z,0.00
2018-06-15T02:44:22.692Z,0.00
2018-06-15T02:45:22.917Z,0.00
2018-06-15T02:46:23.172Z,0.00
2018-06-15T02:47:23.400Z,0.00
2018-06-15T02:48:23.646Z,0.00
2018-06-15T02:49:23.881Z,0.00
2018-06-15T02:50:24.094Z,0.00
2018-06-15T02:51:24.347Z,0.00
2018-06-15T02:52:24.555Z,0.00
2018-06-15T02:53:24.797Z,0.00
2018-06-15T02:54:25.051Z,0.00
2018-06-15T02:55:25.298Z,0.00
2018-06-15T02:56:25.527Z,0.00
2018-06-15T02:57:25.770Z,0.00
2018-06-15T02:58:26.012Z,0.00
2018-06-15T02:59:26.246Z,0.00
2018-06-15T03:00:26.515Z,0.00
2018-06-15T03:01:26.720Z,0.00
2018-06-15T03:02:26.962Z,0.00
2018-06-15T03:03:27.236Z,0.00
2018-06-15T03:04:27.443Z,0.00
2018-06-15T03:05:27.705Z,0.00
2018-06-15T03:06:27.925Z,0.00
2018-06-15T03:07:28.190Z,0.00
2018-06-15T03:08:28.434Z,0.00
2018-06-15T03:09:28.655Z,0.00
2018-06-15T03:10:28.901Z,0.00
2018-06-15T03:11:29.129Z,0.00
2018-06-15T03:12:29.396Z,0.00
2018-06-15T03:13:29.614Z,0.00
2018-06-15T03:14:29.839Z,0.00
2018-06-15T03:15:30.083Z,0.00
2018-06-15T03:16:30.316Z,0.00
2018-06-15T03:17:30.556Z,0.00
2018-06-15T03:18:30.809Z,0.00
2018-06-15T03:19:31.031Z,0.00
2018-06-15T03:20:31.273Z,0.00
2018-06-15T03:21:31.515Z,0.00
2018-06-15T03:22:31.748Z,0.00
2018-06-15T03:23:31.981Z,0.00
2018-06-15T03:24:32.223Z,0.00
2018-06-15T03:25:32.460Z,0.00
2018-06-15T03:26:32.717Z,0.00
2018-06-15T03:27:32.931Z,0.00
2018-06-15T03:28:33.174Z,0.00
2018-06-15T03:29:33.406Z,0.00
2018-06-15T03:30:33.657Z,0.00
2018-06-15T03:31:33.933Z,0.00
2018-06-15T03:32:34.155Z,0.00
2018-06-15T03:33:34.423Z,0.00
2018-06-15T03:34:34.635Z,0.00
2018-06-15T03:35:34.851Z,0.00
2018-06-15T03:36:35.105Z,0.00
2018-06-15T03:37:35.353Z,0.00
2018-06-15T03:38:35.560Z,0.00
2018-06-15T03:39:35.799Z,0.00
2018-06-15T03:40:36.043Z,0.00
2018-06-15T03:41:36.275Z,0.00
2018-06-15T03:42:36.501Z,0.00
2018-06-15T03:43:36.734Z,0.00
2018-06-15T03:44:36.979Z,0.00
2018-06-15T03:45:37.206Z,2.96
2018-06-15T03:46:37.438Z,6.40
2018-06-15T03:47:37.682Z,6.40
2018-06-15T03:48:37.925Z,6.21
2018-06-15T03:49:38.152Z,5.73
2018-06-15T03:50:38.386Z,7.55
2018-06-15T03:51:38.615Z,7.36
2018-06-15T03:52:38.862Z,9.75
2018-06-15T03:53:39.078Z,10.71
2018-06-15T03:54:39.334Z,11.09
2018-06-15T03:55:39.568Z,11.66
2018-06-15T03:56:39.799Z,11.76
2018-06-15T03:57:40.046Z,11.57
2018-06-15T03:58:40.263Z,9.66
2018-06-15T03:59:40.501Z,9.94
2018-06-15T04:00:40.732Z,9.75
2018-06-15T04:01:40.957Z,10.13
2018-06-15T04:02:41.207Z,10.61
2018-06-15T04:03:41.430Z,11.28
2018-06-15T04:04:41.686Z,10.80
2018-06-15T04:05:41.908Z,10.61
2018-06-15T04:06:42.140Z,10.03
2018-06-15T04:07:42.398Z,9.17
2018-06-15T04:08:42.621Z,9.28
2018-06-15T04:09:42.869Z,9.66
2018-06-15T04:10:43.099Z,10.42
2018-06-15T04:11:43.369Z,9.37
2018-06-15T04:12:43.590Z,8.80
2018-06-15T04:13:43.836Z,7.07
2018-06-15T04:14:44.075Z,6.31
2018-06-15T04:15:44.344Z,5.64
2018-06-15T04:16:44.559Z,4.39
2018-06-15T04:17:44.788Z,4.11
2018-06-15T04:18:45.015Z,4.21
2018-06-15T04:19:45.267Z,3.92
2018-06-15T04:20:45.490Z,4.02
2018-06-15T04:21:45.729Z,2.96
2018-06-15T04:22:45.970Z,1.91
2018-06-15T04:23:46.208Z,0.95
2018-06-15T04:24:46.444Z,1.24
2018-06-15T04:25:46.699Z,0.00
2018-06-15T04:26:46.925Z,0.00
2018-06-15T04:27:47.146Z,0.00
2018-06-15T04:28:47.374Z,0.00
2018-06-15T04:29:47.641Z,0.00
2018-06-15T04:30:47.851Z,0.00
2018-06-15T04:31:48.083Z,3.53
2018-06-15T04:32:48.317Z,1.81
2018-06-15T04:33:48.541Z,3.53
2018-06-15T04:34:48.781Z,4.49
2018-06-15T04:35:49.016Z,2.86
2018-06-15T04:36:49.298Z,3.63
2018-06-15T04:37:49.509Z,3.06
2018-06-15T04:38:49.741Z,2.10
2018-06-15T04:39:49.996Z,2.29
2018-06-15T04:40:50.244Z,4.59
2018-06-15T04:41:50.459Z,3.82
2018-06-15T04:42:50.695Z,4.11
2018-06-15T04:43:50.974Z,4.11
2018-06-15T04:44:51.163Z,2.10
2018-06-15T04:45:51.397Z,1.81
2018-06-15T04:46:51.656Z,1.62
2018-06-15T04:47:51.889Z,2.29
2018-06-15T04:48:52.127Z,3.34
2018-06-15T04:49:52.387Z,5.93
2018-06-15T04:50:52.661Z,10.04
2018-06-15T04:51:52.878Z,11.76
2018-06-15T04:52:53.143Z,15.02
2018-06-15T04:53:53.359Z,17.90
2018-06-15T04:54:53.602Z,24.40
2018-06-15T04:55:53.827Z,29.09
2018-06-15T04:56:54.082Z,32.54
2018-06-15T04:57:54.313Z,32.63
2018-06-15T04:58:54.550Z,31.01
2018-06-15T04:59:54.798Z,31.67
2018-06-15T05:00:55.038Z,33.30
2018-06-15T05:01:55.277Z,32.82
2018-06-15T05:02:55.520Z,33.78
2018-06-15T05:03:55.766Z,34.16
2018-06-15T05:04:56.012Z,37.23
2018-06-15T05:05:56.257Z,39.62
2018-06-15T05:06:56.501Z,39.23
2018-06-15T05:07:56.742Z,38.66
2018-06-15T05:08:56.987Z,38.66
2018-06-15T05:09:57.231Z,43.16
2018-06-15T05:10:57.480Z,42.30
2018-06-15T05:11:57.720Z,46.62
2018-06-15T05:12:57.959Z,54.57
2018-06-15T05:13:58.197Z,59.45
2018-06-15T05:14:58.445Z,59.65
2018-06-15T05:15:58.684Z,61.40
2018-06-15T05:16:58.926Z,62.84
2018-06-15T05:17:59.168Z,69.74
2018-06-15T05:18:59.412Z,68.87
2018-06-15T05:19:59.656Z,64.28
2018-06-15T05:20:59.897Z,67.54
2018-06-15T05:22:00.146Z,69.93
2018-06-15T05:23:00.383Z,72.52
2018-06-15T05:24:00.629Z,70.89
2018-06-15T05:25:00.859Z,69.17
2018-06-15T05:26:01.101Z,67.72
2018-06-15T05:27:01.344Z,68.30
2018-06-15T05:28:01.588Z,67.91
2018-06-15T05:29:01.832Z,71.27
2018-06-15T05:30:02.075Z,70.89
2018-06-15T05:31:02.321Z,71.75
2018-06-15T05:32:02.559Z,72.52
2018-06-15T05:33:02.796Z,68.87
2018-06-15T05:34:03.046Z,66.58
2018-06-15T05:35:03.288Z,60.93
2018-06-15T05:36:03.538Z,64.66
2018-06-15T05:37:03.777Z,72.32
2018-06-15T05:38:04.022Z,69.17
2018-06-15T05:39:04.267Z,67.54
2018-06-15T05:40:04.511Z,66.67
2018-06-15T05:41:04.754Z,62.55
2018-06-15T05:42:04.999Z,69.96
2018-06-15T05:43:05.243Z,72.74
2018-06-15T05:44:05.488Z,76.77
2018-06-15T05:45:05.732Z,75.85
2018-06-15T05:46:05.977Z,76.14
2018-06-15T05:47:06.220Z,80.74
2018-06-15T05:48:06.460Z,85.72
2018-06-15T05:49:06.703Z,89.37
2018-06-15T05:50:06.949Z,95.70
2018-06-15T05:51:07.193Z,89.41
2018-06-15T05:52:07.438Z,95.36
2018-06-15T05:53:07.681Z,98.72
2018-06-15T05:54:07.930Z,99.77
2018-06-15T05:55:08.176Z,99.99
2018-06-15T05:56:08.431Z,99.99
2018-06-15T05:57:08.666Z,97.91
2018-06-15T05:58:08.912Z,92.29
2018-06-15T05:59:09.157Z,85.63
2018-06-15T06:00:09.400Z,79.30
2018-06-15T06:01:09.646Z,85.92
2018-06-15T06:02:09.879Z,89.51
2018-06-15T06:03:10.140Z,92.58
2018-06-15T06:04:10.387Z,89.56
2018-06-15T06:05:10.614Z,95.26
2018-06-15T06:06:10.861Z,92.48
2018-06-15T06:07:11.106Z,97.71
2018-06-15T06:08:11.351Z,98.14
2018-06-15T06:09:11.595Z,99.39
2018-06-15T06:10:11.855Z,99.99
2018-06-15T06:11:12.079Z,99.99
2018-06-15T06:12:12.323Z,99.99
2018-06-15T06:13:12.567Z,99.99
2018-06-15T06:14:12.810Z,99.99
2018-06-15T06:15:13.058Z,99.99
2018-06-15T06:16:13.301Z,99.99
2018-06-15T06:17:13.547Z,99.99
2018-06-15T06:18:13.780Z,99.99
2018-06-15T06:19:14.025Z,99.99
2018-06-15T06:20:14.268Z,99.99
2018-06-15T06:21:14.510Z,99.99
2018-06-15T06:22:14.758Z,99.99
2018-06-15T06:23:15.007Z,99.99
2018-06-15T06:24:15.249Z,99.99
2018-06-15T06:25:15.495Z,99.99
2018-06-15T06:26:15.732Z,99.99
2018-06-15T06:27:15.974Z,99.99
2018-06-15T06:28:16.219Z,99.99
2018-06-15T06:29:16.468Z,99.99
2018-06-15T06:30:16.711Z,99.99
2018-06-15T06:31:16.959Z,99.99
2018-06-15T06:32:17.199Z,99.99
2018-06-15T06:33:17.444Z,99.99
2018-06-15T06:34:17.700Z,99.99
2018-06-15T06:35:17.931Z,99.99
2018-06-15T06:36:18.176Z,99.99
2018-06-15T06:37:18.428Z,99.99
2018-06-15T06:38:18.665Z,99.99
2018-06-15T06:39:18.916Z,99.99
2018-06-15T06:40:19.162Z,99.99
2018-06-15T06:41:19.407Z,99.99
2018-06-15T06:42:19.651Z,99.99
2018-06-15T06:43:19.897Z,99.99
2018-06-15T06:44:20.143Z,99.99
2018-06-15T06:45:20.388Z,99.99
2018-06-15T06:46:20.635Z,99.99
2018-06-15T06:47:20.878Z,99.99
2018-06-15T06:48:21.124Z,99.99
2018-06-15T06:49:21.369Z,99.99
2018-06-15T06:50:21.614Z,99.99
2018-06-15T06:51:21.861Z,99.99
2018-06-15T06:52:22.105Z,99.99
2018-06-15T06:53:22.350Z,99.99
2018-06-15T06:54:22.598Z,99.99
2018-06-15T06:55:22.843Z,99.99
2018-06-15T06:56:23.089Z,99.99
2018-06-15T06:57:23.335Z,99.99
2018-06-15T06:58:23.581Z,99.99
2018-06-15T06:59:23.828Z,99.99
2018-06-15T07:00:24.075Z,99.99
2018-06-15T07:01:24.322Z,99.99
2018-06-15T07:02:24.566Z,99.99
2018-06-15T07:03:24.812Z,99.99
2018-06-15T07:04:25.057Z,99.99
2018-06-15T07:05:25.329Z,99.99
2018-06-15T07:06:25.550Z,99.99
2018-06-15T07:07:25.796Z,99.99
2018-06-15T07:08:26.041Z,99.99
2018-06-15T07:09:26.287Z,99.99
2018-06-15T07:10:26.532Z,99.99
2018-06-15T07:11:26.779Z,99.99
2018-06-15T07:12:27.024Z,99.99
2018-06-15T07:13:27.270Z,99.99
2018-06-15T07:14:27.516Z,99.99
2018-06-15T07:15:27.763Z,99.99
2018-06-15T07:16:28.009Z,99.99
2018-06-15T07:17:28.254Z,99.99
2018-06-15T07:18:28.501Z,99.99
2018-06-15T07:19:28.747Z,99.99
2018-06-15T07:20:28.992Z,99.99
2018-06-15T07:21:29.237Z,99.99
2018-06-15T07:22:29.482Z,99.99
2018-06-15T07:23:29.731Z,99.99
2018-06-15T07:24:29.972Z,99.99
2018-06-15T07:25:30.218Z,99.99
2018-06-15T07:26:30.464Z,99.99
2018-06-15T07:27:30.709Z,99.99
2018-06-15T07:28:30.957Z,99.99
2018-06-15T07:29:31.202Z,99.99
2018-06-15T07:30:31.447Z,99.99
2018-06-15T07:31:31.693Z,99.99
2018-06-15T07:32:31.938Z,99.99
2018-06-15T07:33:32.224Z,99.99
2018-06-15T07:34:32.426Z,99.99
2018-06-15T07:35:32.672Z,99.99
2018-06-15T07:36:32.915Z,99.99
2018-06-15T07:37:33.165Z,99.99
2018-06-15T07:38:33.411Z,99.99
2018-06-15T07:39:33.663Z,99.99
2018-06-15T07:40:33.903Z,99.99
2018-06-15T07:41:34.147Z,99.99
2018-06-15T07:42:34.396Z,99.99
2018-06-15T07:43:34.645Z,99.99
2018-06-15T07:44:34.891Z,99.99
2018-06-15T07:45:35.147Z,99.99
2018-06-15T07:46:35.379Z,99.99
2018-06-15T07:47:35.625Z,99.99
2018-06-15T07:48:35.869Z,99.99
2018-06-15T07:49:36.113Z,99.99
2018-06-15T07:50:36.356Z,99.99
2018-06-15T07:51:36.599Z,99.99
2018-06-15T07:52:36.850Z,99.99
2018-06-15T07:53:37.089Z,99.99
2018-06-15T07:54:37.334Z,99.99
2018-06-15T07:55:37.585Z,99.99
2018-06-15T07:56:37.830Z,99.99
2018-06-15T07:57:38.072Z,99.99
2018-06-15T07:58:38.319Z,99.99
2018-06-15T07:59:38.576Z,99.99
2018-06-15T08:00:38.817Z,99.99
2018-06-15T08:01:39.062Z,99.99
2018-06-15T08:02:39.308Z,99.99
2018-06-15T08:03:39.574Z,99.99
2018-06-15T08:04:39.799Z,99.99
2018-06-15T08:05:40.047Z,99.99
2018-06-15T08:06:40.293Z,99.99
2018-06-15T08:07:40.540Z,99.99
2018-06-15T08:08:40.787Z,99.99
2018-06-15T08:09:41.032Z,99.99
2018-06-15T08:10:41.279Z,99.99
2018-06-15T08:11:41.524Z,99.99
2018-06-15T08:12:41.772Z,99.99
2018-06-15T08:13:42.025Z,99.99
2018-06-15T08:14:42.275Z,99.99
2018-06-15T08:15:42.516Z,99.99
2018-06-15T08:16:42.759Z,99.99
2018-06-15T08:17:43.013Z,99.99
2018-06-15T08:18:43.261Z,99.99
2018-06-15T08:19:43.510Z,99.99
2018-06-15T08:20:43.750Z,99.99
2018-06-15T08:21:43.997Z,99.99
2018-06-15T08:22:44.259Z,99.99
2018-06-15T08:23:44.510Z,99.99
2018-06-15T08:24:44.754Z,99.99
2018-06-15T08:25:45.006Z,99.99
2018-06-15T08:26:45.260Z,99.99
2018-06-15T08:27:45.518Z,99.99
2018-06-15T08:28:45.738Z,99.99
2018-06-15T08:29:45.976Z,99.99
2018-06-15T08:30:46.227Z,99.99
2018-06-15T08:31:46.467Z,99.99
2018-06-15T08:32:46.711Z,99.99
2018-06-15T08:33:46.959Z,99.99
2018-06-15T08:34:47.207Z,99.99
2018-06-15T08:35:47.444Z,99.99
2018-06-15T08:36:47.702Z,99.99
2018-06-15T08:37:47.992Z,99.99
2018-06-15T08:38:48.233Z,99.99
2018-06-15T08:39:48.484Z,99.99
2018-06-15T08:40:48.748Z,99.99
2018-06-15T08:41:48.992Z,99.99
2018-06-15T08:42:49.246Z,99.99
2018-06-15T08:43:49.485Z,99.99
2018-06-15T08:44:49.742Z,99.99
2018-06-15T08:45:49.985Z,99.99
2018-06-15T08:46:50.225Z,99.99
2018-06-15T08:47:50.472Z,99.99
2018-06-15T08:48:50.728Z,99.99
2018-06-15T08:49:50.971Z,99.99
2018-06-15T08:50:51.222Z,99.99
2018-06-15T08:51:51.484Z,99.99
2018-06-15T08:52:51.785Z,99.99
2018-06-15T08:53:51.968Z,99.99
2018-06-15T08:54:52.215Z,99.99
2018-06-15T08:55:52.462Z,99.99
2018-06-15T08:56:52.719Z,99.99
2018-06-15T08:57:52.964Z,99.99
2018-06-15T08:58:53.209Z,99.99
2018-06-15T08:59:53.455Z,99.99
2018-06-15T09:00:53.705Z,99.99
2018-06-15T09:01:54.026Z,99.99
2018-06-15T09:02:54.214Z,99.99
2018-06-15T09:03:54.447Z,99.99
2018-06-15T09:04:54.706Z,99.99
2018-06-15T09:05:54.931Z,99.99
2018-06-15T09:06:55.185Z,99.99
2018-06-15T09:07:55.437Z,99.99
2018-06-15T09:08:55.685Z,99.99
2018-06-15T09:09:55.939Z,99.99
2018-06-15T09:10:56.176Z,99.99
2018-06-15T09:11:56.420Z,99.99
2018-06-15T09:12:56.668Z,99.99
2018-06-15T09:13:56.919Z,99.99
2018-06-15T09:14:57.169Z,99.99
2018-06-15T09:15:57.422Z,99.99
2018-06-15T09:16:57.674Z,99.99
2018-06-15T09:17:57.924Z,99.99
2018-06-15T09:18:58.182Z,99.99
2018-06-15T09:19:58.430Z,99.99
2018-06-15T09:20:58.683Z,99.99
2018-06-15T09:21:58.932Z,99.99
2018-06-15T09:22:59.183Z,97.67
2018-06-15T09:23:59.433Z,99.99
2018-06-15T09:24:59.686Z,99.99
2018-06-15T09:25:59.920Z,99.99
2018-06-15T09:27:00.182Z,99.99
2018-06-15T09:28:00.422Z,99.99
2018-06-15T09:29:00.674Z,99.99
2018-06-15T09:30:00.927Z,99.99
2018-06-15T09:31:01.179Z,99.99
2018-06-15T09:32:01.432Z,99.99
2018-06-15T09:33:01.683Z,99.99
2018-06-15T09:34:01.936Z,99.99
2018-06-15T09:35:02.187Z,99.99
2018-06-15T09:36:02.441Z,98.78
2018-06-15T09:37:02.696Z,99.99
2018-06-15T09:38:02.942Z,97.81
2018-06-15T09:39:03.228Z,99.99
2018-06-15T09:40:03.446Z,93.61
2018-06-15T09:41:03.699Z,96.99
2018-06-15T09:42:03.949Z,95.45
2018-06-15T09:43:04.201Z,93.17
2018-06-15T09:44:04.450Z,94.67
2018-06-15T09:45:04.702Z,92.83
2018-06-15T09:46:04.953Z,94.87
2018-06-15T09:47:05.206Z,95.35
2018-06-15T09:48:05.459Z,96.22
2018-06-15T09:49:05.712Z,92.49
2018-06-15T09:50:05.961Z,88.53
2018-06-15T09:51:06.214Z,82.39
2018-06-15T09:52:06.465Z,82.53
2018-06-15T09:53:06.719Z,79.04
2018-06-15T09:54:06.979Z,77.24
2018-06-15T09:55:07.232Z,75.50
2018-06-15T09:56:07.491Z,77.73
2018-06-15T09:57:07.737Z,75.54
2018-06-15T09:58:07.984Z,73.99
2018-06-15T09:59:08.233Z,73.14
2018-06-15T10:00:08.490Z,75.70
2018-06-15T10:01:08.736Z,72.15
2018-06-15T10:02:08.988Z,72.34
2018-06-15T10:03:09.232Z,70.89
2018-06-15T10:04:09.489Z,73.95
2018-06-15T10:05:09.737Z,73.21
2018-06-15T10:06:10.052Z,71.66
2018-06-15T10:07:10.240Z,74.34
2018-06-15T10:08:10.488Z,77.11
2018-06-15T10:09:10.735Z,72.98
2018-06-15T10:10:10.983Z,70.98
2018-06-15T10:11:11.233Z,69.15
2018-06-15T10:12:11.490Z,67.24
2018-06-15T10:13:11.744Z,65.43
2018-06-15T10:14:11.999Z,65.11
2018-06-15T10:15:12.255Z,63.49
2018-06-15T10:16:12.507Z,64.47
2018-06-15T10:17:12.766Z,62.69
2018-06-15T10:18:13.018Z,66.82
2018-06-15T10:19:13.280Z,66.37
2018-06-15T10:20:13.518Z,68.63
2018-06-15T10:21:13.777Z,77.22
2018-06-15T10:22:14.027Z,75.75
2018-06-15T10:23:14.281Z,71.34
2018-06-15T10:24:14.536Z,69.92
2018-06-15T10:25:14.787Z,68.30
2018-06-15T10:26:15.042Z,66.37
2018-06-15T10:27:15.355Z,66.60
2018-06-15T10:28:15.550Z,64.37
2018-06-15T10:29:15.795Z,66.34
2018-06-15T10:30:16.056Z,68.82
2018-06-15T10:31:16.297Z,70.76
2018-06-15T10:32:16.556Z,72.56
2018-06-15T10:33:16.796Z,70.88
2018-06-15T10:34:17.057Z,73.78
2018-06-15T10:35:17.293Z,71.01
2018-06-15T10:36:17.546Z,73.57
2018-06-15T10:37:17.816Z,74.08
2018-06-15T10:38:18.053Z,71.18
2018-06-15T10:39:18.365Z,73.73
2018-06-15T10:40:18.559Z,69.60
2018-06-15T10:41:18.821Z,63.40
2018-06-15T10:42:19.066Z,63.69
2018-06-15T10:43:19.359Z,63.72
2018-06-15T10:44:19.576Z,58.61
2018-06-15T10:45:19.833Z,57.73
2018-06-15T10:46:20.087Z,60.64
2018-06-15T10:47:20.340Z,60.45
2018-06-15T10:48:20.597Z,59.70
2018-06-15T10:49:20.850Z,54.92
2018-06-15T10:50:21.107Z,53.59
2018-06-15T10:51:21.362Z,55.14
2018-06-15T10:52:21.616Z,55.55
2018-06-15T10:53:21.873Z,55.00
2018-06-15T10:54:22.132Z,51.53
2018-06-15T10:55:22.387Z,52.25
2018-06-15T10:56:22.647Z,53.59
2018-06-15T10:57:22.903Z,56.93
2018-06-15T10:58:23.160Z,57.78
2018-06-15T10:59:23.413Z,59.61
2018-06-15T11:00:23.672Z,60.07
2018-06-15T11:01:23.921Z,57.26
2018-06-15T11:02:24.183Z,58.45
2018-06-15T11:03:24.433Z,58.87
2018-06-15T11:04:24.689Z,54.14
2018-06-15T11:05:24.946Z,54.34
2018-06-15T11:06:25.202Z,56.64
2018-06-15T11:07:25.458Z,56.18
2018-06-15T11:08:25.739Z,55.89
2018-06-15T11:09:25.986Z,54.14
2018-06-15T11:10:26.241Z,53.70
2018-06-15T11:11:26.495Z,56.13
2018-06-15T11:12:26.751Z,55.21
2018-06-15T11:13:27.002Z,54.63
2018-06-15T11:14:27.277Z,53.97
2018-06-15T11:15:27.517Z,55.73
2018-06-15T11:16:27.767Z,54.05
2018-06-15T11:17:28.028Z,55.11
2018-06-15T11:18:28.282Z,55.89
2018-06-15T11:19:28.538Z,54.88
2018-06-15T11:20:28.795Z,51.57
2018-06-15T11:21:29.053Z,52.25
2018-06-15T11:22:29.307Z,52.37
2018-06-15T11:23:29.564Z,51.72
2018-06-15T11:24:29.817Z,49.85
2018-06-15T11:25:30.071Z,49.66
2018-06-15T11:26:30.325Z,47.91
2018-06-15T11:27:30.580Z,47.98
2018-06-15T11:28:30.835Z,49.44
2018-06-15T11:29:31.093Z,51.93
2018-06-15T11:30:31.351Z,50.56
2018-06-15T11:31:31.597Z,49.41
2018-06-15T11:32:31.852Z,51.01
2018-06-15T11:33:32.105Z,52.33
2018-06-15T11:34:32.363Z,55.69
2018-06-15T11:35:32.618Z,59.42
2018-06-15T11:36:32.871Z,62.27
2018-06-15T11:37:33.127Z,64.98
2018-06-15T11:38:33.387Z,67.82
2018-06-15T11:39:33.641Z,74.10
2018-06-15T11:40:33.893Z,79.56
2018-06-15T11:41:34.164Z,83.14
2018-06-15T11:42:34.406Z,86.22
2018-06-15T11:43:34.834Z,84.88
2018-06-15T11:44:35.081Z,87.38
2018-06-15T11:45:35.332Z,83.56
2018-06-15T11:46:35.583Z,83.75
2018-06-15T11:47:35.835Z,85.64
2018-06-15T11:48:36.103Z,87.48
2018-06-15T11:49:36.337Z,90.67
2018-06-15T11:50:36.587Z,89.89
2018-06-15T11:51:36.839Z,90.28
2018-06-15T11:52:37.090Z,87.58
2018-06-15T11:53:37.341Z,87.19
2018-06-15T11:54:37.594Z,85.06
2018-06-15T11:55:37.842Z,85.45
2018-06-15T11:56:38.092Z,88.64
2018-06-15T11:57:38.340Z,88.83
2018-06-15T11:58:38.589Z,86.42
2018-06-15T11:59:38.840Z,87.00
2018-06-15T12:00:39.089Z,88.25
2018-06-15T12:01:39.361Z,87.77
2018-06-15T12:02:39.587Z,87.77
2018-06-15T12:03:39.838Z,89.61
2018-06-15T12:04:40.087Z,89.79
2018-06-15T12:05:40.337Z,88.45
2018-06-15T12:06:40.591Z,87.58
2018-06-15T12:07:40.835Z,87.38
2018-06-15T12:08:41.084Z,85.64
2018-06-15T12:09:41.336Z,84.78
2018-06-15T12:10:41.585Z,86.65
2018-06-15T12:11:41.834Z,85.45
2018-06-15T12:12:42.090Z,86.13
2018-06-15T12:13:42.332Z,85.26
2018-06-15T12:14:42.582Z,87.71
2018-06-15T12:15:42.832Z,84.63
2018-06-15T12:16:43.082Z,86.17
2018-06-15T12:17:43.330Z,84.14
2018-06-15T12:18:43.582Z,80.57
2018-06-15T12:19:43.832Z,81.63
2018-06-15T12:20:44.079Z,81.53
2018-06-15T12:21:44.329Z,78.96
2018-06-15T12:22:44.578Z,75.62
2018-06-15T12:23:44.831Z,74.81
2018-06-15T12:24:45.082Z,78.83
2018-06-15T12:25:45.331Z,78.87
2018-06-15T12:26:45.579Z,74.71
2018-06-15T12:27:45.826Z,77.32
2018-06-15T12:28:46.074Z,76.61
2018-06-15T12:29:46.322Z,83.04
2018-06-15T12:30:46.574Z,82.40
2018-06-15T12:31:46.823Z,82.11
2018-06-15T12:32:47.096Z,80.47
2018-06-15T12:33:47.320Z,74.71
2018-06-15T12:34:47.568Z,75.54
2018-06-15T12:35:47.817Z,79.70
2018-06-15T12:36:48.067Z,78.92
2018-06-15T12:37:48.316Z,78.83
2018-06-15T12:38:48.563Z,79.74
2018-06-15T12:39:48.814Z,78.92
2018-06-15T12:40:49.059Z,73.46
2018-06-15T12:41:49.310Z,73.36
2018-06-15T12:42:49.557Z,70.78
2018-06-15T12:43:49.806Z,70.98
2018-06-15T12:44:50.056Z,69.72
2018-06-15T12:45:50.366Z,73.04
2018-06-15T12:46:50.555Z,72.14
2018-06-15T12:47:50.807Z,74.32
2018-06-15T12:48:51.053Z,75.58
2018-06-15T12:49:51.301Z,75.68
2018-06-15T12:50:51.550Z,77.17
2018-06-15T12:51:51.800Z,78.71
2018-06-15T12:52:52.049Z,77.75
2018-06-15T12:53:52.297Z,72.81
2018-06-15T12:54:52.547Z,73.26
2018-06-15T12:55:52.798Z,78.54
2018-06-15T12:56:53.045Z,87.52
2018-06-15T12:57:53.295Z,87.77
2018-06-15T12:58:53.545Z,84.20
2018-06-15T12:59:53.792Z,88.97
2018-06-15T13:00:54.042Z,88.29
2018-06-15T13:01:54.291Z,83.95
2018-06-15T13:02:54.540Z,79.06
2018-06-15T13:03:54.789Z,75.58